sensor_id;sensor_type;location;lat;lon;timestamp;P1;durP1;ratioP1;P2;durP2;ratioP2
19436;SDS011;9854;50.968;4.168;2023-04-24T00:00:08;25.17;;;16.43;;
19436;SDS011;9854;50.968;4.168;2023-04-24T00:02:34;26.30;;;17.73;;
19436;SDS011;9854;50.968;4.168;2023-04-24T00:05:03;27.93;;;17.53;;
19436;SDS011;9854;50.968;4.168;2023-04-24T00:07:30;28.87;;;17.53;;
19436;SDS011;9854;50.968;4.168;2023-04-24T00:09:56;23.20;;;17.17;;
19436;SDS011;9854;50.968;4.168;2023-04-24T00:12:22;26.20;;;16.42;;
19436;SDS011;9854;50.968;4.168;2023-04-24T00:14:48;24.67;;;16.97;;
19436;SDS011;9854;50.968;4.168;2023-04-24T00:17:14;30.17;;;16.93;;
19436;SDS011;9854;50.968;4.168;2023-04-24T00:19:40;27.45;;;16.33;;
19436;SDS011;9854;50.968;4.168;2023-04-24T00:22:05;21.97;;;15.37;;
19436;SDS011;9854;50.968;4.168;2023-04-24T00:24:31;29.37;;;17.23;;
19436;SDS011;9854;50.968;4.168;2023-04-24T00:26:57;26.90;;;15.87;;
19436;SDS011;9854;50.968;4.168;2023-04-24T00:29:23;26.45;;;16.10;;
19436;SDS011;9854;50.968;4.168;2023-04-24T00:31:48;26.57;;;16.67;;
19436;SDS011;9854;50.968;4.168;2023-04-24T00:34:14;25.90;;;17.52;;
19436;SDS011;9854;50.968;4.168;2023-04-24T00:36:40;21.93;;;15.83;;
19436;SDS011;9854;50.968;4.168;2023-04-24T00:39:05;27.17;;;16.27;;
19436;SDS011;9854;50.968;4.168;2023-04-24T00:41:33;28.80;;;16.38;;
19436;SDS011;9854;50.968;4.168;2023-04-24T00:43:59;27.77;;;16.53;;
19436;SDS011;9854;50.968;4.168;2023-04-24T00:46:25;23.13;;;16.48;;
19436;SDS011;9854;50.968;4.168;2023-04-24T00:48:50;27.00;;;16.83;;
19436;SDS011;9854;50.968;4.168;2023-04-24T00:51:17;25.20;;;16.20;;
19436;SDS011;9854;50.968;4.168;2023-04-24T00:53:42;30.83;;;16.07;;
19436;SDS011;9854;50.968;4.168;2023-04-24T00:56:08;25.13;;;15.40;;
19436;SDS011;9854;50.968;4.168;2023-04-24T00:58:35;27.17;;;15.70;;
19436;SDS011;9854;50.968;4.168;2023-04-24T01:01:01;26.30;;;17.17;;
19436;SDS011;9854;50.968;4.168;2023-04-24T01:03:29;23.60;;;16.77;;
19436;SDS011;9854;50.968;4.168;2023-04-24T01:05:56;28.73;;;16.13;;
19436;SDS011;9854;50.968;4.168;2023-04-24T01:08:26;30.33;;;16.87;;
19436;SDS011;9854;50.968;4.168;2023-04-24T01:10:53;21.53;;;16.00;;
19436;SDS011;9854;50.968;4.168;2023-04-24T01:13:19;24.93;;;15.13;;
19436;SDS011;9854;50.968;4.168;2023-04-24T01:15:45;21.47;;;15.17;;
19436;SDS011;9854;50.968;4.168;2023-04-24T01:18:12;23.97;;;15.67;;
19436;SDS011;9854;50.968;4.168;2023-04-24T01:20:41;23.03;;;15.20;;
19436;SDS011;9854;50.968;4.168;2023-04-24T01:23:09;22.53;;;14.40;;
19436;SDS011;9854;50.968;4.168;2023-04-24T01:25:35;18.80;;;14.20;;
19436;SDS011;9854;50.968;4.168;2023-04-24T01:28:02;16.63;;;12.03;;
19436;SDS011;9854;50.968;4.168;2023-04-24T01:30:28;17.10;;;11.43;;
19436;SDS011;9854;50.968;4.168;2023-04-24T01:32:54;15.03;;;11.00;;
19436;SDS011;9854;50.968;4.168;2023-04-24T01:35:21;11.97;;;10.77;;
19436;SDS011;9854;50.968;4.168;2023-04-24T01:37:47;13.30;;;10.33;;
19436;SDS011;9854;50.968;4.168;2023-04-24T01:40:12;11.63;;;10.10;;
19436;SDS011;9854;50.968;4.168;2023-04-24T01:42:38;13.07;;;10.50;;
19436;SDS011;9854;50.968;4.168;2023-04-24T01:45:06;12.20;;;10.73;;
19436;SDS011;9854;50.968;4.168;2023-04-24T01:47:36;14.13;;;10.63;;
19436;SDS011;9854;50.968;4.168;2023-04-24T01:50:03;11.37;;;9.87;;
19436;SDS011;9854;50.968;4.168;2023-04-24T01:52:29;10.13;;;8.97;;
19436;SDS011;9854;50.968;4.168;2023-04-24T01:54:56;10.47;;;9.27;;
19436;SDS011;9854;50.968;4.168;2023-04-24T01:57:25;10.87;;;9.43;;
19436;SDS011;9854;50.968;4.168;2023-04-24T01:59:51;10.93;;;9.87;;
19436;SDS011;9854;50.968;4.168;2023-04-24T02:02:16;11.73;;;10.60;;
19436;SDS011;9854;50.968;4.168;2023-04-24T02:04:42;11.03;;;9.97;;
19436;SDS011;9854;50.968;4.168;2023-04-24T02:07:08;12.20;;;11.10;;
19436;SDS011;9854;50.968;4.168;2023-04-24T02:09:34;13.57;;;12.20;;
19436;SDS011;9854;50.968;4.168;2023-04-24T02:11:59;15.27;;;12.40;;
19436;SDS011;9854;50.968;4.168;2023-04-24T02:14:25;14.37;;;12.90;;
19436;SDS011;9854;50.968;4.168;2023-04-24T02:16:51;15.77;;;12.37;;
19436;SDS011;9854;50.968;4.168;2023-04-24T02:19:18;16.93;;;14.27;;
19436;SDS011;9854;50.968;4.168;2023-04-24T02:21:44;16.47;;;14.47;;
19436;SDS011;9854;50.968;4.168;2023-04-24T02:24:10;19.33;;;15.63;;
19436;SDS011;9854;50.968;4.168;2023-04-24T02:26:35;19.63;;;16.23;;
19436;SDS011;9854;50.968;4.168;2023-04-24T02:29:01;20.03;;;15.50;;
19436;SDS011;9854;50.968;4.168;2023-04-24T02:31:26;21.97;;;15.17;;
19436;SDS011;9854;50.968;4.168;2023-04-24T02:33:52;23.23;;;16.20;;
19436;SDS011;9854;50.968;4.168;2023-04-24T02:36:18;22.10;;;16.10;;
19436;SDS011;9854;50.968;4.168;2023-04-24T02:38:43;19.93;;;16.53;;
19436;SDS011;9854;50.968;4.168;2023-04-24T02:41:09;16.87;;;15.07;;
19436;SDS011;9854;50.968;4.168;2023-04-24T02:43:35;18.33;;;15.73;;
19436;SDS011;9854;50.968;4.168;2023-04-24T02:46:01;19.13;;;15.27;;
19436;SDS011;9854;50.968;4.168;2023-04-24T02:48:27;18.47;;;15.67;;
19436;SDS011;9854;50.968;4.168;2023-04-24T02:50:53;23.90;;;17.47;;
19436;SDS011;9854;50.968;4.168;2023-04-24T02:53:19;22.33;;;15.60;;
19436;SDS011;9854;50.968;4.168;2023-04-24T02:55:45;20.90;;;17.37;;
19436;SDS011;9854;50.968;4.168;2023-04-24T02:58:11;21.17;;;15.37;;
19436;SDS011;9854;50.968;4.168;2023-04-24T03:00:38;17.83;;;14.50;;
19436;SDS011;9854;50.968;4.168;2023-04-24T03:03:05;20.23;;;15.93;;
19436;SDS011;9854;50.968;4.168;2023-04-24T03:05:31;20.53;;;15.03;;
19436;SDS011;9854;50.968;4.168;2023-04-24T03:07:57;19.03;;;15.43;;
19436;SDS011;9854;50.968;4.168;2023-04-24T03:10:23;18.77;;;14.80;;
19436;SDS011;9854;50.968;4.168;2023-04-24T03:12:49;17.20;;;15.33;;
19436;SDS011;9854;50.968;4.168;2023-04-24T03:15:15;17.73;;;14.90;;
19436;SDS011;9854;50.968;4.168;2023-04-24T03:17:40;22.47;;;15.20;;
19436;SDS011;9854;50.968;4.168;2023-04-24T03:20:06;15.73;;;13.80;;
19436;SDS011;9854;50.968;4.168;2023-04-24T03:22:35;15.60;;;14.10;;
19436;SDS011;9854;50.968;4.168;2023-04-24T03:25:01;16.03;;;14.10;;
19436;SDS011;9854;50.968;4.168;2023-04-24T03:27:27;15.47;;;13.77;;
19436;SDS011;9854;50.968;4.168;2023-04-24T03:29:53;14.07;;;12.47;;
19436;SDS011;9854;50.968;4.168;2023-04-24T03:32:20;14.83;;;12.23;;
19436;SDS011;9854;50.968;4.168;2023-04-24T03:34:49;12.63;;;11.43;;
19436;SDS011;9854;50.968;4.168;2023-04-24T03:37:16;13.20;;;11.90;;
19436;SDS011;9854;50.968;4.168;2023-04-24T03:39:42;13.17;;;11.87;;
19436;SDS011;9854;50.968;4.168;2023-04-24T03:42:07;14.00;;;12.60;;
19436;SDS011;9854;50.968;4.168;2023-04-24T03:44:33;14.57;;;11.67;;
19436;SDS011;9854;50.968;4.168;2023-04-24T03:47:00;12.93;;;11.50;;
19436;SDS011;9854;50.968;4.168;2023-04-24T03:49:26;16.00;;;11.70;;
19436;SDS011;9854;50.968;4.168;2023-04-24T03:51:51;15.85;;;12.45;;
19436;SDS011;9854;50.968;4.168;2023-04-24T03:54:17;14.53;;;11.80;;
19436;SDS011;9854;50.968;4.168;2023-04-24T03:56:44;11.10;;;10.00;;
19436;SDS011;9854;50.968;4.168;2023-04-24T03:59:09;10.17;;;9.20;;
19436;SDS011;9854;50.968;4.168;2023-04-24T04:01:35;10.93;;;8.63;;
19436;SDS011;9854;50.968;4.168;2023-04-24T04:04:02;11.70;;;7.93;;
19436;SDS011;9854;50.968;4.168;2023-04-24T04:06:28;11.88;;;8.68;;
19436;SDS011;9854;50.968;4.168;2023-04-24T04:08:55;9.30;;;8.40;;
19436;SDS011;9854;50.968;4.168;2023-04-24T04:11:21;10.70;;;9.60;;
19436;SDS011;9854;50.968;4.168;2023-04-24T04:13:47;12.05;;;10.73;;
19436;SDS011;9854;50.968;4.168;2023-04-24T04:16:13;14.13;;;10.60;;
19436;SDS011;9854;50.968;4.168;2023-04-24T04:18:41;14.23;;;11.13;;
19436;SDS011;9854;50.968;4.168;2023-04-24T04:21:07;13.53;;;11.33;;
19436;SDS011;9854;50.968;4.168;2023-04-24T04:23:33;15.27;;;11.75;;
19436;SDS011;9854;50.968;4.168;2023-04-24T04:25:58;15.23;;;12.60;;
19436;SDS011;9854;50.968;4.168;2023-04-24T04:28:28;16.07;;;13.37;;
19436;SDS011;9854;50.968;4.168;2023-04-24T04:30:55;15.13;;;12.77;;
19436;SDS011;9854;50.968;4.168;2023-04-24T04:33:22;17.23;;;12.77;;
19436;SDS011;9854;50.968;4.168;2023-04-24T04:35:48;17.57;;;13.73;;
19436;SDS011;9854;50.968;4.168;2023-04-24T04:38:15;21.50;;;15.10;;
19436;SDS011;9854;50.968;4.168;2023-04-24T04:40:42;23.10;;;15.87;;
19436;SDS011;9854;50.968;4.168;2023-04-24T04:43:08;24.17;;;16.20;;
19436;SDS011;9854;50.968;4.168;2023-04-24T04:45:35;28.27;;;17.40;;
19436;SDS011;9854;50.968;4.168;2023-04-24T04:48:00;30.53;;;17.27;;
19436;SDS011;9854;50.968;4.168;2023-04-24T04:50:27;23.13;;;16.80;;
19436;SDS011;9854;50.968;4.168;2023-04-24T04:52:52;23.07;;;17.97;;
19436;SDS011;9854;50.968;4.168;2023-04-24T04:55:18;24.57;;;17.37;;
19436;SDS011;9854;50.968;4.168;2023-04-24T04:57:47;29.03;;;18.03;;
19436;SDS011;9854;50.968;4.168;2023-04-24T05:00:13;25.43;;;18.10;;
19436;SDS011;9854;50.968;4.168;2023-04-24T05:02:38;28.67;;;18.53;;
19436;SDS011;9854;50.968;4.168;2023-04-24T05:05:05;29.23;;;18.50;;
19436;SDS011;9854;50.968;4.168;2023-04-24T05:07:31;28.50;;;18.93;;
19436;SDS011;9854;50.968;4.168;2023-04-24T05:09:57;31.53;;;18.97;;
19436;SDS011;9854;50.968;4.168;2023-04-24T05:12:22;32.77;;;19.37;;
19436;SDS011;9854;50.968;4.168;2023-04-24T05:14:48;27.27;;;18.13;;
19436;SDS011;9854;50.968;4.168;2023-04-24T05:17:14;34.47;;;19.30;;
19436;SDS011;9854;50.968;4.168;2023-04-24T05:19:40;29.23;;;19.80;;
19436;SDS011;9854;50.968;4.168;2023-04-24T05:22:05;29.03;;;19.07;;
19436;SDS011;9854;50.968;4.168;2023-04-24T05:24:32;28.30;;;18.73;;
19436;SDS011;9854;50.968;4.168;2023-04-24T05:26:58;36.77;;;19.63;;
19436;SDS011;9854;50.968;4.168;2023-04-24T05:29:24;32.73;;;20.43;;
19436;SDS011;9854;50.968;4.168;2023-04-24T05:31:51;31.77;;;20.13;;
19436;SDS011;9854;50.968;4.168;2023-04-24T05:34:17;30.90;;;21.30;;
19436;SDS011;9854;50.968;4.168;2023-04-24T05:36:43;28.23;;;20.83;;
19436;SDS011;9854;50.968;4.168;2023-04-24T05:39:09;37.13;;;19.93;;
19436;SDS011;9854;50.968;4.168;2023-04-24T05:41:34;26.47;;;19.27;;
19436;SDS011;9854;50.968;4.168;2023-04-24T05:44:00;32.23;;;20.17;;
19436;SDS011;9854;50.968;4.168;2023-04-24T05:46:26;31.10;;;20.37;;
19436;SDS011;9854;50.968;4.168;2023-04-24T05:48:51;27.83;;;20.43;;
19436;SDS011;9854;50.968;4.168;2023-04-24T05:51:17;36.93;;;21.13;;
19436;SDS011;9854;50.968;4.168;2023-04-24T05:53:42;34.83;;;20.73;;
19436;SDS011;9854;50.968;4.168;2023-04-24T05:56:08;35.10;;;20.60;;
19436;SDS011;9854;50.968;4.168;2023-04-24T05:58:34;37.30;;;20.93;;
19436;SDS011;9854;50.968;4.168;2023-04-24T06:00:59;31.20;;;21.13;;
19436;SDS011;9854;50.968;4.168;2023-04-24T06:03:26;26.70;;;19.83;;
19436;SDS011;9854;50.968;4.168;2023-04-24T06:05:52;34.67;;;21.33;;
19436;SDS011;9854;50.968;4.168;2023-04-24T06:08:18;31.63;;;20.43;;
19436;SDS011;9854;50.968;4.168;2023-04-24T06:10:44;38.63;;;21.77;;
19436;SDS011;9854;50.968;4.168;2023-04-24T06:13:10;37.37;;;22.03;;
19436;SDS011;9854;50.968;4.168;2023-04-24T06:15:36;35.93;;;21.40;;
19436;SDS011;9854;50.968;4.168;2023-04-24T06:18:02;36.93;;;21.87;;
19436;SDS011;9854;50.968;4.168;2023-04-24T06:20:28;37.33;;;21.37;;
19436;SDS011;9854;50.968;4.168;2023-04-24T06:22:53;33.43;;;22.83;;
19436;SDS011;9854;50.968;4.168;2023-04-24T06:25:19;39.00;;;23.33;;
19436;SDS011;9854;50.968;4.168;2023-04-24T06:27:45;41.87;;;24.13;;
19436;SDS011;9854;50.968;4.168;2023-04-24T06:30:11;44.10;;;24.43;;
19436;SDS011;9854;50.968;4.168;2023-04-24T06:32:37;40.73;;;24.20;;
19436;SDS011;9854;50.968;4.168;2023-04-24T06:35:02;37.73;;;24.07;;
19436;SDS011;9854;50.968;4.168;2023-04-24T06:37:29;37.57;;;23.73;;
19436;SDS011;9854;50.968;4.168;2023-04-24T06:39:55;37.13;;;24.50;;
19436;SDS011;9854;50.968;4.168;2023-04-24T06:42:20;41.70;;;24.20;;
19436;SDS011;9854;50.968;4.168;2023-04-24T06:44:47;38.10;;;24.97;;
19436;SDS011;9854;50.968;4.168;2023-04-24T06:47:12;40.07;;;25.30;;
19436;SDS011;9854;50.968;4.168;2023-04-24T06:49:41;50.33;;;25.23;;
19436;SDS011;9854;50.968;4.168;2023-04-24T06:52:07;46.17;;;25.57;;
19436;SDS011;9854;50.968;4.168;2023-04-24T06:54:33;42.13;;;25.47;;
19436;SDS011;9854;50.968;4.168;2023-04-24T06:56:59;43.67;;;24.47;;
19436;SDS011;9854;50.968;4.168;2023-04-24T06:59:28;40.67;;;24.27;;
19436;SDS011;9854;50.968;4.168;2023-04-24T07:01:54;42.40;;;23.87;;
19436;SDS011;9854;50.968;4.168;2023-04-24T07:04:20;38.67;;;24.17;;
19436;SDS011;9854;50.968;4.168;2023-04-24T07:06:46;32.63;;;21.80;;
19436;SDS011;9854;50.968;4.168;2023-04-24T07:09:12;33.23;;;20.93;;
19436;SDS011;9854;50.968;4.168;2023-04-24T07:11:39;37.00;;;21.50;;
19436;SDS011;9854;50.968;4.168;2023-04-24T07:14:05;31.93;;;20.87;;
19436;SDS011;9854;50.968;4.168;2023-04-24T07:16:32;35.73;;;19.30;;
19436;SDS011;9854;50.968;4.168;2023-04-24T07:18:57;31.23;;;18.13;;
19436;SDS011;9854;50.968;4.168;2023-04-24T07:21:23;31.80;;;17.60;;
19436;SDS011;9854;50.968;4.168;2023-04-24T07:23:49;25.87;;;16.03;;
19436;SDS011;9854;50.968;4.168;2023-04-24T07:26:15;31.03;;;15.37;;
19436;SDS011;9854;50.968;4.168;2023-04-24T07:28:40;27.27;;;14.10;;
19436;SDS011;9854;50.968;4.168;2023-04-24T07:31:06;20.87;;;12.83;;
19436;SDS011;9854;50.968;4.168;2023-04-24T07:33:33;24.87;;;13.03;;
19436;SDS011;9854;50.968;4.168;2023-04-24T07:35:59;24.30;;;13.33;;
19436;SDS011;9854;50.968;4.168;2023-04-24T07:38:25;23.67;;;13.03;;
19436;SDS011;9854;50.968;4.168;2023-04-24T07:40:51;22.70;;;14.03;;
19436;SDS011;9854;50.968;4.168;2023-04-24T07:43:17;23.50;;;13.10;;
19436;SDS011;9854;50.968;4.168;2023-04-24T07:45:43;28.57;;;13.07;;
19436;SDS011;9854;50.968;4.168;2023-04-24T07:48:09;21.63;;;12.80;;
19436;SDS011;9854;50.968;4.168;2023-04-24T07:50:35;28.60;;;14.80;;
19436;SDS011;9854;50.968;4.168;2023-04-24T07:53:01;29.03;;;13.50;;
19436;SDS011;9854;50.968;4.168;2023-04-24T07:55:27;32.43;;;14.27;;
19436;SDS011;9854;50.968;4.168;2023-04-24T07:57:53;30.93;;;14.87;;
19436;SDS011;9854;50.968;4.168;2023-04-24T08:00:19;26.33;;;13.93;;
19436;SDS011;9854;50.968;4.168;2023-04-24T08:02:45;20.67;;;12.50;;
19436;SDS011;9854;50.968;4.168;2023-04-24T08:05:11;24.10;;;12.13;;
19436;SDS011;9854;50.968;4.168;2023-04-24T08:07:37;20.50;;;12.23;;
19436;SDS011;9854;50.968;4.168;2023-04-24T08:10:03;18.70;;;12.10;;
19436;SDS011;9854;50.968;4.168;2023-04-24T08:12:29;30.20;;;11.47;;
19436;SDS011;9854;50.968;4.168;2023-04-24T08:14:55;20.90;;;10.70;;
19436;SDS011;9854;50.968;4.168;2023-04-24T08:17:21;22.57;;;10.47;;
19436;SDS011;9854;50.968;4.168;2023-04-24T08:19:47;23.00;;;9.60;;
19436;SDS011;9854;50.968;4.168;2023-04-24T08:22:16;20.33;;;9.67;;
19436;SDS011;9854;50.968;4.168;2023-04-24T08:24:41;17.03;;;9.20;;
19436;SDS011;9854;50.968;4.168;2023-04-24T08:27:08;21.80;;;9.60;;
19436;SDS011;9854;50.968;4.168;2023-04-24T08:29:35;23.57;;;9.33;;
19436;SDS011;9854;50.968;4.168;2023-04-24T08:32:01;26.17;;;9.37;;
19436;SDS011;9854;50.968;4.168;2023-04-24T08:34:27;21.07;;;9.50;;
19436;SDS011;9854;50.968;4.168;2023-04-24T08:36:52;23.47;;;8.33;;
19436;SDS011;9854;50.968;4.168;2023-04-24T08:39:18;18.83;;;8.60;;
19436;SDS011;9854;50.968;4.168;2023-04-24T08:41:44;21.33;;;8.97;;
19436;SDS011;9854;50.968;4.168;2023-04-24T08:44:10;21.93;;;9.43;;
19436;SDS011;9854;50.968;4.168;2023-04-24T08:46:37;24.03;;;9.00;;
19436;SDS011;9854;50.968;4.168;2023-04-24T08:49:04;21.40;;;9.23;;
19436;SDS011;9854;50.968;4.168;2023-04-24T08:51:30;18.73;;;8.68;;
19436;SDS011;9854;50.968;4.168;2023-04-24T08:53:56;18.70;;;8.45;;
19436;SDS011;9854;50.968;4.168;2023-04-24T08:56:22;20.42;;;7.50;;
19436;SDS011;9854;50.968;4.168;2023-04-24T08:58:50;17.02;;;7.20;;
19436;SDS011;9854;50.968;4.168;2023-04-24T09:01:20;18.30;;;7.27;;
19436;SDS011;9854;50.968;4.168;2023-04-24T09:03:49;13.10;;;5.68;;
19436;SDS011;9854;50.968;4.168;2023-04-24T09:06:16;11.73;;;6.00;;
19436;SDS011;9854;50.968;4.168;2023-04-24T09:08:43;14.97;;;5.57;;
19436;SDS011;9854;50.968;4.168;2023-04-24T09:11:10;14.43;;;4.93;;
19436;SDS011;9854;50.968;4.168;2023-04-24T09:13:37;14.53;;;5.50;;
19436;SDS011;9854;50.968;4.168;2023-04-24T09:16:03;14.83;;;5.57;;
19436;SDS011;9854;50.968;4.168;2023-04-24T09:18:29;9.47;;;4.33;;
19436;SDS011;9854;50.968;4.168;2023-04-24T09:20:58;11.27;;;4.82;;
19436;SDS011;9854;50.968;4.168;2023-04-24T09:23:34;13.23;;;4.90;;
19436;SDS011;9854;50.968;4.168;2023-04-24T09:26:01;15.32;;;5.15;;
19436;SDS011;9854;50.968;4.168;2023-04-24T09:28:34;8.35;;;5.45;;
19436;SDS011;9854;50.968;4.168;2023-04-24T09:31:08;13.55;;;5.05;;
19436;SDS011;9854;50.968;4.168;2023-04-24T09:34:02;13.73;;;5.45;;
19436;SDS011;9854;50.968;4.168;2023-04-24T09:36:37;10.30;;;5.30;;
19436;SDS011;9854;50.968;4.168;2023-04-24T09:39:04;10.80;;;5.28;;
19436;SDS011;9854;50.968;4.168;2023-04-24T09:41:38;12.15;;;5.18;;
19436;SDS011;9854;50.968;4.168;2023-04-24T09:46:39;9.90;;;4.50;;
19436;SDS011;9854;50.968;4.168;2023-04-24T09:49:09;15.05;;;5.63;;
19436;SDS011;9854;50.968;4.168;2023-04-24T09:51:42;14.23;;;5.40;;
19436;SDS011;9854;50.968;4.168;2023-04-24T09:54:20;14.02;;;5.47;;
19436;SDS011;9854;50.968;4.168;2023-04-24T09:56:47;11.13;;;5.00;;
19436;SDS011;9854;50.968;4.168;2023-04-24T09:59:14;12.45;;;5.18;;
19436;SDS011;9854;50.968;4.168;2023-04-24T10:01:41;11.13;;;5.47;;
19436;SDS011;9854;50.968;4.168;2023-04-24T10:04:17;9.73;;;5.32;;
19436;SDS011;9854;50.968;4.168;2023-04-24T10:06:44;11.60;;;5.63;;
19436;SDS011;9854;50.968;4.168;2023-04-24T10:09:11;11.13;;;5.57;;
19436;SDS011;9854;50.968;4.168;2023-04-24T10:11:40;12.60;;;5.65;;
19436;SDS011;9854;50.968;4.168;2023-04-24T10:14:09;9.65;;;5.55;;
19436;SDS011;9854;50.968;4.168;2023-04-24T10:16:37;11.10;;;5.03;;
19436;SDS011;9854;50.968;4.168;2023-04-24T10:19:04;11.25;;;5.55;;
19436;SDS011;9854;50.968;4.168;2023-04-24T10:21:30;12.23;;;5.00;;
19436;SDS011;9854;50.968;4.168;2023-04-24T10:23:57;10.20;;;4.70;;
19436;SDS011;9854;50.968;4.168;2023-04-24T10:26:24;7.80;;;5.18;;
19436;SDS011;9854;50.968;4.168;2023-04-24T10:28:52;8.77;;;4.63;;
19436;SDS011;9854;50.968;4.168;2023-04-24T10:31:22;13.02;;;4.63;;
19436;SDS011;9854;50.968;4.168;2023-04-24T10:33:48;11.45;;;5.07;;
19436;SDS011;9854;50.968;4.168;2023-04-24T10:36:16;9.70;;;4.82;;
19436;SDS011;9854;50.968;4.168;2023-04-24T10:38:43;10.85;;;5.07;;
19436;SDS011;9854;50.968;4.168;2023-04-24T10:41:11;11.77;;;5.25;;
19436;SDS011;9854;50.968;4.168;2023-04-24T10:43:44;19.67;;;5.93;;
19436;SDS011;9854;50.968;4.168;2023-04-24T10:46:10;8.35;;;5.22;;
19436;SDS011;9854;50.968;4.168;2023-04-24T10:48:47;17.83;;;4.95;;
19436;SDS011;9854;50.968;4.168;2023-04-24T10:51:18;13.05;;;5.18;;
19436;SDS011;9854;50.968;4.168;2023-04-24T10:53:47;10.13;;;4.68;;
19436;SDS011;9854;50.968;4.168;2023-04-24T10:56:15;7.15;;;4.05;;
19436;SDS011;9854;50.968;4.168;2023-04-24T10:58:45;7.35;;;4.63;;
19436;SDS011;9854;50.968;4.168;2023-04-24T11:01:29;10.75;;;4.68;;
19436;SDS011;9854;50.968;4.168;2023-04-24T11:03:57;7.88;;;4.55;;
19436;SDS011;9854;50.968;4.168;2023-04-24T11:06:28;11.57;;;4.78;;
19436;SDS011;9854;50.968;4.168;2023-04-24T11:09:01;9.10;;;4.85;;
19436;SDS011;9854;50.968;4.168;2023-04-24T11:11:30;7.00;;;4.40;;
19436;SDS011;9854;50.968;4.168;2023-04-24T11:21:43;11.43;;;4.68;;
19436;SDS011;9854;50.968;4.168;2023-04-24T11:24:38;7.95;;;5.10;;
19436;SDS011;9854;50.968;4.168;2023-04-24T11:27:06;9.90;;;5.53;;
19436;SDS011;9854;50.968;4.168;2023-04-24T11:32:17;9.20;;;5.13;;
19436;SDS011;9854;50.968;4.168;2023-04-24T11:34:52;10.00;;;5.05;;
19436;SDS011;9854;50.968;4.168;2023-04-24T11:37:21;7.00;;;4.38;;
19436;SDS011;9854;50.968;4.168;2023-04-24T11:39:52;6.60;;;4.50;;
19436;SDS011;9854;50.968;4.168;2023-04-24T11:42:19;8.55;;;4.70;;
19436;SDS011;9854;50.968;4.168;2023-04-24T11:44:46;7.57;;;4.80;;
19436;SDS011;9854;50.968;4.168;2023-04-24T11:47:12;9.98;;;4.97;;
19436;SDS011;9854;50.968;4.168;2023-04-24T11:49:38;7.40;;;4.55;;
19436;SDS011;9854;50.968;4.168;2023-04-24T11:52:04;7.68;;;4.00;;
19436;SDS011;9854;50.968;4.168;2023-04-24T11:54:31;7.70;;;3.70;;
19436;SDS011;9854;50.968;4.168;2023-04-24T11:56:57;6.63;;;4.60;;
19436;SDS011;9854;50.968;4.168;2023-04-24T11:59:22;9.32;;;4.28;;
19436;SDS011;9854;50.968;4.168;2023-04-24T12:01:48;8.82;;;5.40;;
19436;SDS011;9854;50.968;4.168;2023-04-24T12:04:15;7.38;;;5.30;;
19436;SDS011;9854;50.968;4.168;2023-04-24T12:09:27;12.95;;;5.25;;
19436;SDS011;9854;50.968;4.168;2023-04-24T12:11:53;8.88;;;4.15;;
19436;SDS011;9854;50.968;4.168;2023-04-24T12:14:22;7.82;;;4.78;;
19436;SDS011;9854;50.968;4.168;2023-04-24T12:16:49;6.32;;;4.47;;
19436;SDS011;9854;50.968;4.168;2023-04-24T12:19:20;7.60;;;4.45;;
19436;SDS011;9854;50.968;4.168;2023-04-24T12:21:58;15.07;;;4.68;;
19436;SDS011;9854;50.968;4.168;2023-04-24T12:24:28;6.65;;;4.25;;
19436;SDS011;9854;50.968;4.168;2023-04-24T12:26:55;6.82;;;4.70;;
19436;SDS011;9854;50.968;4.168;2023-04-24T12:29:22;7.97;;;4.60;;
19436;SDS011;9854;50.968;4.168;2023-04-24T12:31:48;7.70;;;4.70;;
19436;SDS011;9854;50.968;4.168;2023-04-24T12:34:18;7.63;;;4.50;;
19436;SDS011;9854;50.968;4.168;2023-04-24T12:36:48;7.93;;;4.28;;
19436;SDS011;9854;50.968;4.168;2023-04-24T12:39:15;6.07;;;4.00;;
19436;SDS011;9854;50.968;4.168;2023-04-24T12:41:54;9.40;;;3.55;;
19436;SDS011;9854;50.968;4.168;2023-04-24T12:44:32;5.68;;;3.10;;
19436;SDS011;9854;50.968;4.168;2023-04-24T12:47:00;6.72;;;3.50;;
19436;SDS011;9854;50.968;4.168;2023-04-24T12:49:26;5.78;;;2.83;;
19436;SDS011;9854;50.968;4.168;2023-04-24T12:51:52;9.65;;;2.85;;
19436;SDS011;9854;50.968;4.168;2023-04-24T12:54:18;3.95;;;2.55;;
19436;SDS011;9854;50.968;4.168;2023-04-24T12:56:44;7.05;;;2.83;;
19436;SDS011;9854;50.968;4.168;2023-04-24T12:59:10;7.20;;;2.58;;
19436;SDS011;9854;50.968;4.168;2023-04-24T13:01:36;3.47;;;2.60;;
19436;SDS011;9854;50.968;4.168;2023-04-24T13:04:01;5.13;;;2.30;;
19436;SDS011;9854;50.968;4.168;2023-04-24T13:06:27;5.78;;;2.70;;
19436;SDS011;9854;50.968;4.168;2023-04-24T13:08:53;6.90;;;3.05;;
19436;SDS011;9854;50.968;4.168;2023-04-24T13:11:20;7.75;;;3.10;;
19436;SDS011;9854;50.968;4.168;2023-04-24T13:13:47;4.43;;;2.60;;
19436;SDS011;9854;50.968;4.168;2023-04-24T13:16:12;7.80;;;2.70;;
19436;SDS011;9854;50.968;4.168;2023-04-24T13:18:38;6.65;;;2.60;;
19436;SDS011;9854;50.968;4.168;2023-04-24T13:21:04;4.53;;;2.65;;
19436;SDS011;9854;50.968;4.168;2023-04-24T13:23:29;6.55;;;2.83;;
19436;SDS011;9854;50.968;4.168;2023-04-24T13:25:55;4.28;;;2.58;;
19436;SDS011;9854;50.968;4.168;2023-04-24T13:28:23;5.20;;;2.58;;
19436;SDS011;9854;50.968;4.168;2023-04-24T13:30:50;10.43;;;2.50;;
19436;SDS011;9854;50.968;4.168;2023-04-24T13:33:16;3.90;;;2.15;;
19436;SDS011;9854;50.968;4.168;2023-04-24T13:35:41;4.60;;;2.42;;
19436;SDS011;9854;50.968;4.168;2023-04-24T13:38:07;5.63;;;1.98;;
19436;SDS011;9854;50.968;4.168;2023-04-24T13:40:33;7.20;;;2.35;;
19436;SDS011;9854;50.968;4.168;2023-04-24T13:42:58;5.03;;;2.03;;
19436;SDS011;9854;50.968;4.168;2023-04-24T13:45:24;7.85;;;2.45;;
19436;SDS011;9854;50.968;4.168;2023-04-24T13:47:50;3.97;;;2.15;;
19436;SDS011;9854;50.968;4.168;2023-04-24T13:50:16;5.68;;;2.30;;
19436;SDS011;9854;50.968;4.168;2023-04-24T13:52:42;4.88;;;2.05;;
19436;SDS011;9854;50.968;4.168;2023-04-24T13:55:07;3.20;;;1.85;;
19436;SDS011;9854;50.968;4.168;2023-04-24T13:57:33;3.85;;;1.70;;
19436;SDS011;9854;50.968;4.168;2023-04-24T13:59:59;6.28;;;2.00;;
19436;SDS011;9854;50.968;4.168;2023-04-24T14:02:26;5.03;;;1.77;;
19436;SDS011;9854;50.968;4.168;2023-04-24T14:04:52;2.45;;;1.50;;
19436;SDS011;9854;50.968;4.168;2023-04-24T14:07:18;2.33;;;1.58;;
19436;SDS011;9854;50.968;4.168;2023-04-24T14:09:43;4.30;;;1.67;;
19436;SDS011;9854;50.968;4.168;2023-04-24T14:12:09;5.55;;;1.90;;
19436;SDS011;9854;50.968;4.168;2023-04-24T14:14:35;4.03;;;1.88;;
19436;SDS011;9854;50.968;4.168;2023-04-24T14:17:00;2.83;;;1.40;;
19436;SDS011;9854;50.968;4.168;2023-04-24T14:19:26;3.22;;;1.48;;
19436;SDS011;9854;50.968;4.168;2023-04-24T14:21:51;3.60;;;1.50;;
19436;SDS011;9854;50.968;4.168;2023-04-24T14:24:17;3.83;;;1.70;;
19436;SDS011;9854;50.968;4.168;2023-04-24T14:26:43;3.53;;;1.48;;
19436;SDS011;9854;50.968;4.168;2023-04-24T14:29:09;3.08;;;1.38;;
19436;SDS011;9854;50.968;4.168;2023-04-24T14:31:34;3.25;;;1.40;;
19436;SDS011;9854;50.968;4.168;2023-04-24T14:34:00;3.03;;;1.33;;
19436;SDS011;9854;50.968;4.168;2023-04-24T14:36:25;3.13;;;1.60;;
19436;SDS011;9854;50.968;4.168;2023-04-24T14:38:51;3.30;;;1.70;;
19436;SDS011;9854;50.968;4.168;2023-04-24T14:41:17;2.63;;;1.40;;
19436;SDS011;9854;50.968;4.168;2023-04-24T14:43:42;4.13;;;1.58;;
19436;SDS011;9854;50.968;4.168;2023-04-24T14:46:08;6.32;;;1.77;;
19436;SDS011;9854;50.968;4.168;2023-04-24T14:48:34;4.72;;;1.60;;
19436;SDS011;9854;50.968;4.168;2023-04-24T14:50:59;2.85;;;1.55;;
19436;SDS011;9854;50.968;4.168;2023-04-24T14:53:25;3.65;;;1.50;;
19436;SDS011;9854;50.968;4.168;2023-04-24T14:55:50;4.65;;;1.63;;